sensor_id;sensor_type;location;lat;lon;timestamp;P1;durP1;ratioP1;P2;durP2;ratioP2
83550;SDS011;74617;47.082;15.524;2024-03-06T00:02:09;4.75;;;1.60;;
83550;SDS011;74617;47.082;15.524;2024-03-06T00:04:35;3.72;;;1.50;;
83550;SDS011;74617;47.082;15.524;2024-03-06T00:07:00;2.83;;;1.30;;
83550;SDS011;74617;47.082;15.524;2024-03-06T00:09:26;5.28;;;1.70;;
83550;SDS011;74617;47.082;15.524;2024-03-06T00:11:52;3.25;;;1.67;;
83550;SDS011;74617;47.082;15.524;2024-03-06T00:14:18;2.15;;;1.20;;
83550;SDS011;74617;47.082;15.524;2024-03-06T00:16:45;2.80;;;1.42;;
83550;SDS011;74617;47.082;15.524;2024-03-06T00:19:10;2.38;;;1.40;;
83550;SDS011;74617;47.082;15.524;2024-03-06T00:21:36;2.58;;;1.25;;
83550;SDS011;74617;47.082;15.524;2024-03-06T00:24:02;2.63;;;1.45;;
83550;SDS011;74617;47.082;15.524;2024-03-06T00:26:28;3.50;;;1.30;;
83550;SDS011;74617;47.082;15.524;2024-03-06T00:28:54;3.15;;;1.45;;
83550;SDS011;74617;47.082;15.524;2024-03-06T00:31:19;3.20;;;1.20;;
83550;SDS011;74617;47.082;15.524;2024-03-06T00:33:45;3.25;;;1.50;;
83550;SDS011;74617;47.082;15.524;2024-03-06T00:36:10;3.58;;;1.52;;
83550;SDS011;74617;47.082;15.524;2024-03-06T00:38:35;3.25;;;1.60;;
83550;SDS011;74617;47.082;15.524;2024-03-06T00:41:01;3.58;;;1.50;;
83550;SDS011;74617;47.082;15.524;2024-03-06T00:43:26;3.60;;;1.90;;
83550;SDS011;74617;47.082;15.524;2024-03-06T00:45:51;2.33;;;1.13;;
83550;SDS011;74617;47.082;15.524;2024-03-06T00:48:17;3.72;;;1.23;;
83550;SDS011;74617;47.082;15.524;2024-03-06T00:50:45;2.35;;;1.45;;
83550;SDS011;74617;47.082;15.524;2024-03-06T00:53:10;3.83;;;1.77;;
83550;SDS011;74617;47.082;15.524;2024-03-06T00:55:36;3.47;;;1.30;;
83550;SDS011;74617;47.082;15.524;2024-03-06T00:58:01;3.22;;;1.55;;
83550;SDS011;74617;47.082;15.524;2024-03-06T01:00:27;2.60;;;1.30;;
83550;SDS011;74617;47.082;15.524;2024-03-06T01:02:52;3.03;;;1.50;;
83550;SDS011;74617;47.082;15.524;2024-03-06T01:05:18;3.53;;;1.70;;
83550;SDS011;74617;47.082;15.524;2024-03-06T01:07:43;3.20;;;1.50;;
83550;SDS011;74617;47.082;15.524;2024-03-06T01:10:09;2.60;;;1.25;;
83550;SDS011;74617;47.082;15.524;2024-03-06T01:12:34;3.28;;;1.67;;
83550;SDS011;74617;47.082;15.524;2024-03-06T01:15:00;3.53;;;1.40;;
83550;SDS011;74617;47.082;15.524;2024-03-06T01:17:25;4.05;;;1.92;;
83550;SDS011;74617;47.082;15.524;2024-03-06T01:19:51;3.70;;;1.30;;
83550;SDS011;74617;47.082;15.524;2024-03-06T01:22:17;3.33;;;1.40;;
83550;SDS011;74617;47.082;15.524;2024-03-06T01:24:43;2.72;;;1.27;;
83550;SDS011;74617;47.082;15.524;2024-03-06T01:27:09;3.47;;;1.75;;
83550;SDS011;74617;47.082;15.524;2024-03-06T01:29:34;3.95;;;1.50;;
83550;SDS011;74617;47.082;15.524;2024-03-06T01:32:00;3.85;;;1.48;;
83550;SDS011;74617;47.082;15.524;2024-03-06T01:34:25;3.35;;;1.52;;
83550;SDS011;74617;47.082;15.524;2024-03-06T01:36:51;2.42;;;1.30;;
83550;SDS011;74617;47.082;15.524;2024-03-06T01:39:17;3.58;;;1.67;;
83550;SDS011;74617;47.082;15.524;2024-03-06T01:41:46;3.30;;;1.55;;
83550;SDS011;74617;47.082;15.524;2024-03-06T01:44:16;3.72;;;1.70;;
83550;SDS011;74617;47.082;15.524;2024-03-06T01:46:43;2.83;;;1.50;;
83550;SDS011;74617;47.082;15.524;2024-03-06T01:49:09;3.08;;;1.40;;
83550;SDS011;74617;47.082;15.524;2024-03-06T01:51:36;2.97;;;1.40;;
83550;SDS011;74617;47.082;15.524;2024-03-06T01:54:01;3.17;;;1.40;;
83550;SDS011;74617;47.082;15.524;2024-03-06T01:56:31;3.05;;;1.67;;
83550;SDS011;74617;47.082;15.524;2024-03-06T01:58:58;2.75;;;1.25;;
83550;SDS011;74617;47.082;15.524;2024-03-06T02:01:25;4.97;;;1.63;;
83550;SDS011;74617;47.082;15.524;2024-03-06T02:03:51;1.98;;;1.13;;
83550;SDS011;74617;47.082;15.524;2024-03-06T02:06:17;3.53;;;1.45;;
83550;SDS011;74617;47.082;15.524;2024-03-06T02:08:45;2.45;;;1.40;;
83550;SDS011;74617;47.082;15.524;2024-03-06T02:11:13;2.85;;;1.17;;
83550;SDS011;74617;47.082;15.524;2024-03-06T02:13:42;1.80;;;1.02;;
83550;SDS011;74617;47.082;15.524;2024-03-06T02:16:08;5.63;;;1.73;;
83550;SDS011;74617;47.082;15.524;2024-03-06T02:18:35;3.17;;;1.60;;
83550;SDS011;74617;47.082;15.524;2024-03-06T02:21:01;2.83;;;1.23;;
83550;SDS011;74617;47.082;15.524;2024-03-06T02:23:27;2.28;;;1.40;;
83550;SDS011;74617;47.082;15.524;2024-03-06T02:25:52;4.40;;;1.95;;
83550;SDS011;74617;47.082;15.524;2024-03-06T02:28:18;3.92;;;1.73;;
83550;SDS011;74617;47.082;15.524;2024-03-06T02:30:43;3.10;;;1.48;;
83550;SDS011;74617;47.082;15.524;2024-03-06T02:33:09;3.65;;;1.75;;
83550;SDS011;74617;47.082;15.524;2024-03-06T02:35:35;2.65;;;1.20;;
83550;SDS011;74617;47.082;15.524;2024-03-06T02:38:05;2.03;;;1.20;;
83550;SDS011;74617;47.082;15.524;2024-03-06T02:40:31;2.50;;;1.25;;
83550;SDS011;74617;47.082;15.524;2024-03-06T02:42:56;3.53;;;1.20;;
83550;SDS011;74617;47.082;15.524;2024-03-06T02:45:22;3.83;;;1.63;;
83550;SDS011;74617;47.082;15.524;2024-03-06T02:47:47;3.47;;;1.35;;
83550;SDS011;74617;47.082;15.524;2024-03-06T02:50:13;2.65;;;1.35;;
83550;SDS011;74617;47.082;15.524;2024-03-06T02:52:39;2.40;;;1.17;;
83550;SDS011;74617;47.082;15.524;2024-03-06T02:55:04;2.35;;;1.40;;
83550;SDS011;74617;47.082;15.524;2024-03-06T02:57:30;3.58;;;1.70;;
83550;SDS011;74617;47.082;15.524;2024-03-06T02:59:58;3.45;;;1.50;;
83550;SDS011;74617;47.082;15.524;2024-03-06T03:02:24;4.65;;;1.60;;
83550;SDS011;74617;47.082;15.524;2024-03-06T03:04:50;4.35;;;1.80;;
83550;SDS011;74617;47.082;15.524;2024-03-06T03:07:17;3.00;;;1.35;;
83550;SDS011;74617;47.082;15.524;2024-03-06T03:09:44;4.40;;;1.58;;
83550;SDS011;74617;47.082;15.524;2024-03-06T03:12:10;3.60;;;1.70;;
83550;SDS011;74617;47.082;15.524;2024-03-06T03:14:36;3.33;;;1.25;;
83550;SDS011;74617;47.082;15.524;2024-03-06T03:17:02;2.72;;;1.50;;
83550;SDS011;74617;47.082;15.524;2024-03-06T03:19:28;3.50;;;1.45;;
83550;SDS011;74617;47.082;15.524;2024-03-06T03:21:54;2.53;;;1.25;;
83550;SDS011;74617;47.082;15.524;2024-03-06T03:24:20;3.00;;;1.63;;
83550;SDS011;74617;47.082;15.524;2024-03-06T03:26:46;2.85;;;1.40;;
83550;SDS011;74617;47.082;15.524;2024-03-06T03:29:12;3.15;;;1.55;;
83550;SDS011;74617;47.082;15.524;2024-03-06T03:31:37;3.65;;;1.73;;
83550;SDS011;74617;47.082;15.524;2024-03-06T03:34:03;2.42;;;1.13;;
83550;SDS011;74617;47.082;15.524;2024-03-06T03:36:30;3.53;;;1.48;;
83550;SDS011;74617;47.082;15.524;2024-03-06T03:38:55;3.13;;;1.65;;
83550;SDS011;74617;47.082;15.524;2024-03-06T03:41:21;2.05;;;1.25;;
83550;SDS011;74617;47.082;15.524;2024-03-06T03:43:46;3.50;;;1.30;;
83550;SDS011;74617;47.082;15.524;2024-03-06T03:46:11;3.03;;;1.60;;
83550;SDS011;74617;47.082;15.524;2024-03-06T03:48:38;3.38;;;1.55;;
83550;SDS011;74617;47.082;15.524;2024-03-06T03:51:04;3.13;;;1.05;;
83550;SDS011;74617;47.082;15.524;2024-03-06T03:53:31;2.45;;;1.20;;
83550;SDS011;74617;47.082;15.524;2024-03-06T03:56:00;2.88;;;1.30;;
83550;SDS011;74617;47.082;15.524;2024-03-06T03:58:26;2.55;;;1.05;;
83550;SDS011;74617;47.082;15.524;2024-03-06T04:00:52;2.85;;;1.42;;
83550;SDS011;74617;47.082;15.524;2024-03-06T04:03:18;2.45;;;1.38;;
83550;SDS011;74617;47.082;15.524;2024-03-06T04:05:46;2.38;;;1.33;;
83550;SDS011;74617;47.082;15.524;2024-03-06T04:08:12;4.40;;;1.60;;
83550;SDS011;74617;47.082;15.524;2024-03-06T04:10:38;4.03;;;1.48;;
83550;SDS011;74617;47.082;15.524;2024-03-06T04:13:03;3.05;;;1.52;;
83550;SDS011;74617;47.082;15.524;2024-03-06T04:15:29;3.08;;;1.42;;
83550;SDS011;74617;47.082;15.524;2024-03-06T04:17:54;3.75;;;1.67;;
83550;SDS011;74617;47.082;15.524;2024-03-06T04:20:20;3.42;;;1.70;;
83550;SDS011;74617;47.082;15.524;2024-03-06T04:22:45;3.85;;;1.33;;
83550;SDS011;74617;47.082;15.524;2024-03-06T04:25:12;3.15;;;1.77;;
83550;SDS011;74617;47.082;15.524;2024-03-06T04:27:38;2.90;;;1.52;;
83550;SDS011;74617;47.082;15.524;2024-03-06T04:30:04;2.97;;;1.60;;
83550;SDS011;74617;47.082;15.524;2024-03-06T04:32:29;2.47;;;1.35;;
83550;SDS011;74617;47.082;15.524;2024-03-06T04:34:55;2.42;;;1.20;;
83550;SDS011;74617;47.082;15.524;2024-03-06T04:37:21;5.13;;;1.77;;
83550;SDS011;74617;47.082;15.524;2024-03-06T04:39:47;4.60;;;1.63;;
83550;SDS011;74617;47.082;15.524;2024-03-06T04:42:13;4.18;;;1.88;;
83550;SDS011;74617;47.082;15.524;2024-03-06T04:44:38;2.08;;;1.15;;
83550;SDS011;74617;47.082;15.524;2024-03-06T04:47:03;2.85;;;1.30;;
83550;SDS011;74617;47.082;15.524;2024-03-06T04:49:32;3.47;;;1.35;;
83550;SDS011;74617;47.082;15.524;2024-03-06T04:51:59;4.10;;;1.42;;
83550;SDS011;74617;47.082;15.524;2024-03-06T04:54:24;2.50;;;1.42;;
83550;SDS011;74617;47.082;15.524;2024-03-06T04:56:50;2.60;;;1.33;;
83550;SDS011;74617;47.082;15.524;2024-03-06T04:59:15;3.08;;;1.35;;
83550;SDS011;74617;47.082;15.524;2024-03-06T05:01:40;3.42;;;1.70;;
83550;SDS011;74617;47.082;15.524;2024-03-06T05:04:06;2.25;;;1.27;;
83550;SDS011;74617;47.082;15.524;2024-03-06T05:06:32;3.47;;;1.38;;
83550;SDS011;74617;47.082;15.524;2024-03-06T05:08:57;3.30;;;1.65;;
83550;SDS011;74617;47.082;15.524;2024-03-06T05:11:22;3.63;;;1.73;;
83550;SDS011;74617;47.082;15.524;2024-03-06T05:13:48;2.83;;;1.58;;
83550;SDS011;74617;47.082;15.524;2024-03-06T05:16:14;2.72;;;1.25;;
83550;SDS011;74617;47.082;15.524;2024-03-06T05:18:39;3.40;;;1.27;;
83550;SDS011;74617;47.082;15.524;2024-03-06T05:21:05;2.28;;;1.10;;
83550;SDS011;74617;47.082;15.524;2024-03-06T05:23:30;3.40;;;1.60;;
83550;SDS011;74617;47.082;15.524;2024-03-06T05:25:56;3.58;;;1.60;;
83550;SDS011;74617;47.082;15.524;2024-03-06T05:28:22;10.63;;;1.77;;
83550;SDS011;74617;47.082;15.524;2024-03-06T05:30:47;2.55;;;1.30;;
83550;SDS011;74617;47.082;15.524;2024-03-06T05:33:13;4.40;;;1.85;;
83550;SDS011;74617;47.082;15.524;2024-03-06T05:35:38;3.08;;;1.30;;
83550;SDS011;74617;47.082;15.524;2024-03-06T05:38:03;3.92;;;1.48;;
83550;SDS011;74617;47.082;15.524;2024-03-06T05:40:29;2.67;;;1.33;;
83550;SDS011;74617;47.082;15.524;2024-03-06T05:42:59;3.22;;;1.50;;
83550;SDS011;74617;47.082;15.524;2024-03-06T05:45:25;3.63;;;1.80;;
83550;SDS011;74617;47.082;15.524;2024-03-06T05:47:50;3.72;;;1.75;;
83550;SDS011;74617;47.082;15.524;2024-03-06T05:50:16;3.13;;;1.17;;
83550;SDS011;74617;47.082;15.524;2024-03-06T05:52:43;2.55;;;1.50;;
83550;SDS011;74617;47.082;15.524;2024-03-06T05:55:09;2.95;;;1.60;;
83550;SDS011;74617;47.082;15.524;2024-03-06T05:57:34;2.83;;;1.38;;
83550;SDS011;74617;47.082;15.524;2024-03-06T05:59:59;4.32;;;2.30;;
83550;SDS011;74617;47.082;15.524;2024-03-06T06:02:25;3.90;;;2.05;;
83550;SDS011;74617;47.082;15.524;2024-03-06T06:04:50;4.57;;;2.35;;
83550;SDS011;74617;47.082;15.524;2024-03-06T06:07:17;4.93;;;2.38;;
83550;SDS011;74617;47.082;15.524;2024-03-06T06:09:42;4.47;;;2.20;;
83550;SDS011;74617;47.082;15.524;2024-03-06T06:12:08;6.45;;;2.42;;
83550;SDS011;74617;47.082;15.524;2024-03-06T06:14:33;8.68;;;2.63;;
83550;SDS011;74617;47.082;15.524;2024-03-06T06:16:59;8.30;;;2.75;;
83550;SDS011;74617;47.082;15.524;2024-03-06T06:19:24;9.15;;;2.88;;
83550;SDS011;74617;47.082;15.524;2024-03-06T06:21:51;7.60;;;2.65;;
83550;SDS011;74617;47.082;15.524;2024-03-06T06:24:18;7.25;;;2.55;;
83550;SDS011;74617;47.082;15.524;2024-03-06T06:26:44;5.93;;;2.20;;
83550;SDS011;74617;47.082;15.524;2024-03-06T06:29:09;7.38;;;2.47;;
83550;SDS011;74617;47.082;15.524;2024-03-06T06:31:34;5.78;;;2.38;;
83550;SDS011;74617;47.082;15.524;2024-03-06T06:34:00;9.48;;;3.03;;
83550;SDS011;74617;47.082;15.524;2024-03-06T06:36:25;9.75;;;3.20;;
83550;SDS011;74617;47.082;15.524;2024-03-06T06:38:51;12.27;;;3.03;;
83550;SDS011;74617;47.082;15.524;2024-03-06T06:41:17;6.13;;;2.53;;
83550;SDS011;74617;47.082;15.524;2024-03-06T06:43:44;8.70;;;2.15;;
83550;SDS011;74617;47.082;15.524;2024-03-06T06:46:09;7.00;;;2.70;;
83550;SDS011;74617;47.082;15.524;2024-03-06T06:48:35;5.28;;;2.45;;
83550;SDS011;74617;47.082;15.524;2024-03-06T06:51:01;5.60;;;2.42;;
83550;SDS011;74617;47.082;15.524;2024-03-06T06:53:28;7.03;;;2.45;;
83550;SDS011;74617;47.082;15.524;2024-03-06T06:55:54;7.28;;;2.40;;
83550;SDS011;74617;47.082;15.524;2024-03-06T06:58:19;9.07;;;2.53;;
83550;SDS011;74617;47.082;15.524;2024-03-06T07:00:45;5.60;;;2.78;;
83550;SDS011;74617;47.082;15.524;2024-03-06T07:03:10;6.50;;;3.13;;
83550;SDS011;74617;47.082;15.524;2024-03-06T07:05:36;6.50;;;2.72;;
83550;SDS011;74617;47.082;15.524;2024-03-06T07:08:01;6.28;;;2.30;;
83550;SDS011;74617;47.082;15.524;2024-03-06T07:10:27;9.18;;;2.90;;
83550;SDS011;74617;47.082;15.524;2024-03-06T07:12:52;7.20;;;3.30;;
83550;SDS011;74617;47.082;15.524;2024-03-06T07:15:18;9.95;;;3.10;;
83550;SDS011;74617;47.082;15.524;2024-03-06T07:17:43;9.75;;;2.97;;
83550;SDS011;74617;47.082;15.524;2024-03-06T07:20:09;12.07;;;3.20;;
83550;SDS011;74617;47.082;15.524;2024-03-06T07:22:35;6.90;;;3.30;;
83550;SDS011;74617;47.082;15.524;2024-03-06T07:25:01;6.15;;;2.55;;
83550;SDS011;74617;47.082;15.524;2024-03-06T07:27:30;8.30;;;3.10;;
83550;SDS011;74617;47.082;15.524;2024-03-06T07:29:56;7.50;;;2.35;;
83550;SDS011;74617;47.082;15.524;2024-03-06T07:32:21;7.93;;;2.80;;
83550;SDS011;74617;47.082;15.524;2024-03-06T07:34:46;8.43;;;2.92;;
83550;SDS011;74617;47.082;15.524;2024-03-06T07:37:12;6.20;;;2.70;;
83550;SDS011;74617;47.082;15.524;2024-03-06T07:39:37;6.97;;;2.70;;
83550;SDS011;74617;47.082;15.524;2024-03-06T07:42:03;6.30;;;2.50;;
83550;SDS011;74617;47.082;15.524;2024-03-06T07:44:29;12.55;;;3.15;;
83550;SDS011;74617;47.082;15.524;2024-03-06T07:46:54;5.40;;;2.10;;
83550;SDS011;74617;47.082;15.524;2024-03-06T07:49:20;5.65;;;2.53;;
83550;SDS011;74617;47.082;15.524;2024-03-06T07:51:47;6.63;;;2.78;;
83550;SDS011;74617;47.082;15.524;2024-03-06T07:54:12;11.13;;;2.63;;
83550;SDS011;74617;47.082;15.524;2024-03-06T07:56:38;6.60;;;2.58;;
83550;SDS011;74617;47.082;15.524;2024-03-06T07:59:03;6.88;;;2.45;;
83550;SDS011;74617;47.082;15.524;2024-03-06T08:01:29;4.60;;;2.33;;
83550;SDS011;74617;47.082;15.524;2024-03-06T08:03:56;6.85;;;2.80;;
83550;SDS011;74617;47.082;15.524;2024-03-06T08:06:22;5.45;;;1.95;;
83550;SDS011;74617;47.082;15.524;2024-03-06T08:08:48;4.38;;;1.92;;
83550;SDS011;74617;47.082;15.524;2024-03-06T08:11:13;5.53;;;2.35;;
83550;SDS011;74617;47.082;15.524;2024-03-06T08:13:39;8.27;;;2.70;;
83550;SDS011;74617;47.082;15.524;2024-03-06T08:16:05;8.98;;;2.55;;
83550;SDS011;74617;47.082;15.524;2024-03-06T08:18:32;6.47;;;2.25;;
83550;SDS011;74617;47.082;15.524;2024-03-06T08:20:58;8.07;;;2.80;;
83550;SDS011;74617;47.082;15.524;2024-03-06T08:23:23;6.45;;;2.67;;
83550;SDS011;74617;47.082;15.524;2024-03-06T08:25:50;6.10;;;2.60;;
83550;SDS011;74617;47.082;15.524;2024-03-06T08:28:15;6.20;;;2.60;;
83550;SDS011;74617;47.082;15.524;2024-03-06T08:30:41;5.50;;;2.35;;
83550;SDS011;74617;47.082;15.524;2024-03-06T08:33:07;7.30;;;2.40;;
83550;SDS011;74617;47.082;15.524;2024-03-06T08:35:32;5.57;;;2.65;;
83550;SDS011;74617;47.082;15.524;2024-03-06T08:37:59;6.68;;;2.42;;
83550;SDS011;74617;47.082;15.524;2024-03-06T08:40:25;6.18;;;2.30;;
83550;SDS011;74617;47.082;15.524;2024-03-06T08:42:52;4.68;;;2.47;;
83550;SDS011;74617;47.082;15.524;2024-03-06T08:45:18;4.53;;;1.83;;
83550;SDS011;74617;47.082;15.524;2024-03-06T08:47:47;4.85;;;2.20;;
83550;SDS011;74617;47.082;15.524;2024-03-06T08:50:13;5.35;;;3.03;;
83550;SDS011;74617;47.082;15.524;2024-03-06T08:52:38;4.97;;;2.17;;
83550;SDS011;74617;47.082;15.524;2024-03-06T08:55:04;4.47;;;1.70;;
83550;SDS011;74617;47.082;15.524;2024-03-06T08:57:33;6.47;;;2.58;;
83550;SDS011;74617;47.082;15.524;2024-03-06T08:59:59;3.92;;;2.22;;
83550;SDS011;74617;47.082;15.524;2024-03-06T09:02:25;5.68;;;2.45;;
83550;SDS011;74617;47.082;15.524;2024-03-06T09:04:51;8.30;;;2.22;;
83550;SDS011;74617;47.082;15.524;2024-03-06T09:07:17;6.50;;;2.28;;
83550;SDS011;74617;47.082;15.524;2024-03-06T09:09:43;8.05;;;2.38;;
83550;SDS011;74617;47.082;15.524;2024-03-06T09:12:09;4.07;;;2.08;;
83550;SDS011;74617;47.082;15.524;2024-03-06T09:14:39;5.85;;;2.22;;
83550;SDS011;74617;47.082;15.524;2024-03-06T09:17:06;4.70;;;2.35;;
83550;SDS011;74617;47.082;15.524;2024-03-06T09:19:34;7.22;;;2.60;;
83550;SDS011;74617;47.082;15.524;2024-03-06T09:22:00;6.43;;;2.63;;
83550;SDS011;74617;47.082;15.524;2024-03-06T09:24:25;6.95;;;2.35;;
83550;SDS011;74617;47.082;15.524;2024-03-06T09:26:51;3.40;;;1.88;;
83550;SDS011;74617;47.082;15.524;2024-03-06T09:29:17;3.85;;;2.22;;
83550;SDS011;74617;47.082;15.524;2024-03-06T09:31:42;6.03;;;2.50;;
83550;SDS011;74617;47.082;15.524;2024-03-06T09:34:08;4.20;;;1.80;;
83550;SDS011;74617;47.082;15.524;2024-03-06T09:36:37;6.07;;;2.50;;
83550;SDS011;74617;47.082;15.524;2024-03-06T09:39:03;5.85;;;2.50;;
83550;SDS011;74617;47.082;15.524;2024-03-06T09:43:59;5.83;;;2.10;;
83550;SDS011;74617;47.082;15.524;2024-03-06T09:46:25;4.68;;;1.80;;
83550;SDS011;74617;47.082;15.524;2024-03-06T09:48:52;5.97;;;2.40;;
83550;SDS011;74617;47.082;15.524;2024-03-06T09:51:19;5.80;;;2.00;;
83550;SDS011;74617;47.082;15.524;2024-03-06T09:53:45;5.50;;;2.28;;
83550;SDS011;74617;47.082;15.524;2024-03-06T09:56:14;5.30;;;2.50;;
83550;SDS011;74617;47.082;15.524;2024-03-06T09:58:40;5.28;;;2.28;;
83550;SDS011;74617;47.082;15.524;2024-03-06T10:01:05;6.63;;;2.53;;
83550;SDS011;74617;47.082;15.524;2024-03-06T10:03:33;4.95;;;2.25;;
83550;SDS011;74617;47.082;15.524;2024-03-06T10:05:59;5.07;;;1.85;;
83550;SDS011;74617;47.082;15.524;2024-03-06T10:08:25;6.22;;;2.83;;
83550;SDS011;74617;47.082;15.524;2024-03-06T10:10:51;4.85;;;2.10;;
83550;SDS011;74617;47.082;15.524;2024-03-06T10:13:17;5.95;;;2.03;;
83550;SDS011;74617;47.082;15.524;2024-03-06T10:15:54;5.15;;;2.60;;
83550;SDS011;74617;47.082;15.524;2024-03-06T10:18:23;6.03;;;2.03;;
83550;SDS011;74617;47.082;15.524;2024-03-06T10:20:52;5.32;;;2.33;;
83550;SDS011;74617;47.082;15.524;2024-03-06T10:23:18;6.35;;;2.53;;
83550;SDS011;74617;47.082;15.524;2024-03-06T10:25:43;4.78;;;2.05;;
83550;SDS011;74617;47.082;15.524;2024-03-06T10:28:12;4.05;;;2.30;;
83550;SDS011;74617;47.082;15.524;2024-03-06T10:30:38;5.38;;;1.98;;
83550;SDS011;74617;47.082;15.524;2024-03-06T10:33:07;5.85;;;2.15;;
83550;SDS011;74617;47.082;15.524;2024-03-06T10:35:34;4.07;;;2.28;;
83550;SDS011;74617;47.082;15.524;2024-03-06T10:38:04;3.60;;;1.92;;
83550;SDS011;74617;47.082;15.524;2024-03-06T10:40:31;7.80;;;2.17;;
83550;SDS011;74617;47.082;15.524;2024-03-06T10:42:59;5.20;;;2.33;;
83550;SDS011;74617;47.082;15.524;2024-03-06T10:45:31;5.43;;;2.05;;
83550;SDS011;74617;47.082;15.524;2024-03-06T10:48:11;4.82;;;2.00;;
83550;SDS011;74617;47.082;15.524;2024-03-06T10:50:39;4.78;;;2.25;;
83550;SDS011;74617;47.082;15.524;2024-03-06T10:53:09;4.28;;;2.38;;
83550;SDS011;74617;47.082;15.524;2024-03-06T10:55:36;6.05;;;2.10;;
83550;SDS011;74617;47.082;15.524;2024-03-06T10:58:03;4.75;;;2.40;;
83550;SDS011;74617;47.082;15.524;2024-03-06T11:00:33;4.10;;;2.40;;
83550;SDS011;74617;47.082;15.524;2024-03-06T11:03:04;5.43;;;2.40;;
83550;SDS011;74617;47.082;15.524;2024-03-06T11:05:33;4.78;;;2.33;;
83550;SDS011;74617;47.082;15.524;2024-03-06T11:08:00;5.53;;;2.00;;
83550;SDS011;74617;47.082;15.524;2024-03-06T11:10:30;4.35;;;2.10;;
83550;SDS011;74617;47.082;15.524;2024-03-06T11:13:00;5.47;;;2.72;;
83550;SDS011;74617;47.082;15.524;2024-03-06T11:15:30;8.48;;;2.33;;
83550;SDS011;74617;47.082;15.524;2024-03-06T11:17:56;5.38;;;2.30;;
83550;SDS011;74617;47.082;15.524;2024-03-06T11:20:21;6.38;;;2.63;;
83550;SDS011;74617;47.082;15.524;2024-03-06T11:28:10;7.50;;;2.30;;
83550;SDS011;74617;47.082;15.524;2024-03-06T11:30:47;4.40;;;1.98;;
83550;SDS011;74617;47.082;15.524;2024-03-06T11:33:16;8.20;;;2.17;;
83550;SDS011;74617;47.082;15.524;2024-03-06T11:35:42;4.63;;;2.05;;
83550;SDS011;74617;47.082;15.524;2024-03-06T11:38:16;4.90;;;2.05;;
83550;SDS011;74617;47.082;15.524;2024-03-06T11:40:42;3.65;;;1.98;;
83550;SDS011;74617;47.082;15.524;2024-03-06T11:43:27;4.55;;;2.08;;
83550;SDS011;74617;47.082;15.524;2024-03-06T11:45:53;5.43;;;2.13;;
83550;SDS011;74617;47.082;15.524;2024-03-06T11:48:18;6.07;;;2.22;;
83550;SDS011;74617;47.082;15.524;2024-03-06T11:50:46;4.63;;;2.13;;
83550;SDS011;74617;47.082;15.524;2024-03-06T11:53:13;5.15;;;2.22;;
83550;SDS011;74617;47.082;15.524;2024-03-06T11:55:39;4.15;;;1.92;;
83550;SDS011;74617;47.082;15.524;2024-03-06T11:58:04;6.05;;;2.83;;
83550;SDS011;74617;47.082;15.524;2024-03-06T12:00:30;3.33;;;1.70;;
83550;SDS011;74617;47.082;15.524;2024-03-06T12:02:55;4.70;;;1.60;;
83550;SDS011;74617;47.082;15.524;2024-03-06T12:05:22;4.15;;;1.85;;
83550;SDS011;74617;47.082;15.524;2024-03-06T12:07:48;7.90;;;2.25;;
83550;SDS011;74617;47.082;15.524;2024-03-06T12:10:16;5.70;;;1.80;;
83550;SDS011;74617;47.082;15.524;2024-03-06T12:12:41;5.90;;;2.78;;
83550;SDS011;74617;47.082;15.524;2024-03-06T12:15:10;6.05;;;2.17;;
83550;SDS011;74617;47.082;15.524;2024-03-06T12:17:47;6.18;;;2.38;;
83550;SDS011;74617;47.082;15.524;2024-03-06T12:20:15;4.30;;;1.85;;
83550;SDS011;74617;47.082;15.524;2024-03-06T12:22:50;4.45;;;2.38;;
83550;SDS011;74617;47.082;15.524;2024-03-06T12:27:46;3.35;;;1.83;;
83550;SDS011;74617;47.082;15.524;2024-03-06T12:30:11;6.78;;;2.38;;
83550;SDS011;74617;47.082;15.524;2024-03-06T12:32:38;4.85;;;1.90;;
83550;SDS011;74617;47.082;15.524;2024-03-06T12:35:04;3.92;;;1.90;;
83550;SDS011;74617;47.082;15.524;2024-03-06T12:37:31;6.30;;;2.35;;
83550;SDS011;74617;47.082;15.524;2024-03-06T12:39:57;5.75;;;2.40;;
83550;SDS011;74617;47.082;15.524;2024-03-06T12:42:22;4.43;;;2.20;;
83550;SDS011;74617;47.082;15.524;2024-03-06T12:44:49;3.92;;;1.73;;
83550;SDS011;74617;47.082;15.524;2024-03-06T12:47:14;4.10;;;2.33;;
83550;SDS011;74617;47.082;15.524;2024-03-06T12:49:40;4.18;;;2.17;;
83550;SDS011;74617;47.082;15.524;2024-03-06T12:52:05;4.00;;;1.83;;
83550;SDS011;74617;47.082;15.524;2024-03-06T12:54:31;3.20;;;1.65;;
83550;SDS011;74617;47.082;15.524;2024-03-06T12:56:56;5.18;;;2.03;;
83550;SDS011;74617;47.082;15.524;2024-03-06T12:59:22;3.88;;;2.28;;
83550;SDS011;74617;47.082;15.524;2024-03-06T13:01:47;7.00;;;2.30;;
83550;SDS011;74617;47.082;15.524;2024-03-06T13:04:13;3.60;;;1.83;;
83550;SDS011;74617;47.082;15.524;2024-03-06T13:06:39;4.53;;;2.22;;
83550;SDS011;74617;47.082;15.524;2024-03-06T13:09:05;4.13;;;1.58;;
83550;SDS011;74617;47.082;15.524;2024-03-06T13:11:31;6.50;;;2.30;;
83550;SDS011;74617;47.082;15.524;2024-03-06T13:13:57;5.65;;;2.20;;
83550;SDS011;74617;47.082;15.524;2024-03-06T13:16:23;3.80;;;1.73;;
83550;SDS011;74617;47.082;15.524;2024-03-06T13:18:48;4.50;;;1.92;;
83550;SDS011;74617;47.082;15.524;2024-03-06T13:21:20;4.05;;;1.98;;
83550;SDS011;74617;47.082;15.524;2024-03-06T13:23:45;3.13;;;1.77;;
83550;SDS011;74617;47.082;15.524;2024-03-06T13:26:11;5.32;;;1.85;;
83550;SDS011;74617;47.082;15.524;2024-03-06T13:28:38;4.40;;;2.15;;
83550;SDS011;74617;47.082;15.524;2024-03-06T13:31:04;4.50;;;1.92;;
83550;SDS011;74617;47.082;15.524;2024-03-06T13:33:32;3.70;;;1.77;;
83550;SDS011;74617;47.082;15.524;2024-03-06T13:35:57;4.25;;;2.10;;
83550;SDS011;74617;47.082;15.524;2024-03-06T13:38:23;5.13;;;2.42;;
83550;SDS011;74617;47.082;15.524;2024-03-06T13:40:48;5.40;;;2.30;;
83550;SDS011;74617;47.082;15.524;2024-03-06T13:43:14;6.22;;;1.85;;
83550;SDS011;74617;47.082;15.524;2024-03-06T13:45:47;3.97;;;1.95;;
83550;SDS011;74617;47.082;15.524;2024-03-06T13:48:14;4.47;;;2.20;;
83550;SDS011;74617;47.082;15.524;2024-03-06T13:50:43;5.10;;;2.08;;
83550;SDS011;74617;47.082;15.524;2024-03-06T13:53:09;4.78;;;2.03;;
83550;SDS011;74617;47.082;15.524;2024-03-06T13:55:35;3.83;;;2.10;;
83550;SDS011;74617;47.082;15.524;2024-03-06T13:58:01;4.72;;;2.25;;
83550;SDS011;74617;47.082;15.524;2024-03-06T14:00:27;4.47;;;2.05;;
83550;SDS011;74617;47.082;15.524;2024-03-06T14:02:52;5.10;;;2.30;;
83550;SDS011;74617;47.082;15.524;2024-03-06T14:05:17;5.45;;;2.33;;
83550;SDS011;74617;47.082;15.524;2024-03-06T14:07:49;4.28;;;1.85;;
83550;SDS011;74617;47.082;15.524;2024-03-06T14:10:15;4.30;;;2.00;;
83550;SDS011;74617;47.082;15.524;2024-03-06T14:12:41;3.42;;;1.88;;
83550;SDS011;74617;47.082;15.524;2024-03-06T14:15:07;3.97;;;1.90;;
83550;SDS011;74617;47.082;15.524;2024-03-06T14:17:41;4.25;;;1.70;;
83550;SDS011;74617;47.082;15.524;2024-03-06T14:20:07;6.28;;;2.15;;
83550;SDS011;74617;47.082;15.524;2024-03-06T14:22:33;7.50;;;2.50;;
83550;SDS011;74617;47.082;15.524;2024-03-06T14:24:59;3.67;;;1.85;;
83550;SDS011;74617;47.082;15.524;2024-03-06T14:27:24;4.75;;;2.10;;
83550;SDS011;74617;47.082;15.524;2024-03-06T14:29:50;4.10;;;2.38;;
83550;SDS011;74617;47.082;15.524;2024-03-06T14:32:16;4.00;;;1.92;;
83550;SDS011;74617;47.082;15.524;2024-03-06T14:34:44;5.05;;;2.28;;
83550;SDS011;74617;47.082;15.524;2024-03-06T14:37:09;3.75;;;1.88;;
83550;SDS011;74617;47.082;15.524;2024-03-06T14:39:35;5.25;;;2.20;;